createdAt,value
2022-10-22T00:00:40.676Z,63.60
2022-10-22T00:03:07.791Z,63.70
2022-10-22T00:05:36.155Z,63.88
2022-10-22T00:08:03.311Z,63.86
2022-10-22T00:10:30.662Z,63.80
2022-10-22T00:12:59.859Z,64.00
2022-10-22T00:15:26.913Z,63.90
2022-10-22T00:17:56.411Z,64.08
2022-10-22T00:20:27.607Z,63.61
2022-10-22T00:30:37.904Z,64.02
2022-10-22T00:33:04.909Z,63.85
2022-10-22T00:35:32.015Z,63.94
2022-10-22T00:37:58.966Z,63.61
2022-10-22T00:40:26.049Z,63.69
2022-10-22T00:42:53.031Z,64.02
2022-10-22T00:45:24.861Z,64.02
2022-10-22T00:48:08.881Z,64.05
2022-10-22T00:50:55.754Z,63.99
2022-10-22T00:53:25.110Z,63.90
2022-10-22T00:55:52.783Z,63.81
2022-10-22T00:58:21.421Z,63.90
2022-10-22T01:00:48.641Z,64.22
2022-10-22T01:03:15.711Z,64.03
2022-10-22T01:05:47.637Z,63.94
2022-10-22T01:08:25.829Z,64.10
2022-10-22T01:10:57.800Z,63.98
2022-10-22T01:13:47.300Z,64.27
2022-10-22T01:16:28.461Z,63.35
2022-10-22T01:19:02.496Z,61.48
2022-10-22T01:21:57.254Z,61.05
2022-10-22T01:24:36.683Z,60.63
2022-10-22T01:27:22.570Z,60.73
2022-10-22T01:29:59.088Z,61.05
2022-10-22T01:32:26.502Z,61.37
2022-10-22T01:35:00.228Z,61.83
2022-10-22T01:37:30.067Z,61.87
2022-10-22T01:40:00.773Z,62.30
2022-10-22T01:42:27.797Z,62.68
2022-10-22T01:44:54.806Z,62.82
2022-10-22T01:47:27.976Z,63.24
2022-10-22T01:50:04.222Z,63.33
2022-10-22T01:52:37.391Z,62.93
2022-10-22T01:55:31.469Z,62.89
2022-10-22T01:58:32.511Z,63.37
2022-10-22T02:01:13.234Z,63.58
2022-10-22T02:04:14.067Z,63.43
2022-10-22T02:06:41.797Z,63.52
2022-10-22T02:09:08.920Z,63.77
2022-10-22T02:11:35.953Z,63.79
2022-10-22T02:14:04.046Z,64.42
2022-10-22T02:16:34.564Z,65.02
2022-10-22T02:19:04.143Z,65.00
2022-10-22T02:21:31.228Z,64.96
2022-10-22T02:23:58.325Z,65.09
2022-10-22T02:26:31.617Z,65.15
2022-10-22T02:29:03.943Z,65.45
2022-10-22T02:31:32.661Z,63.85
2022-10-22T02:34:03.210Z,62.53
2022-10-22T02:36:30.208Z,62.46
2022-10-22T02:38:57.196Z,62.40
2022-10-22T02:41:24.509Z,62.93
2022-10-22T02:43:54.319Z,63.26
2022-10-22T02:46:21.365Z,63.64
2022-10-22T02:48:48.412Z,63.47
2022-10-22T02:51:15.458Z,63.68
2022-10-22T02:53:42.409Z,63.90
2022-10-22T02:56:09.341Z,64.15
2022-10-22T02:58:36.417Z,64.47
2022-10-22T03:01:03.408Z,64.94
2022-10-22T03:03:30.541Z,65.30
2022-10-22T03:05:57.537Z,65.22
2022-10-22T03:08:24.582Z,65.27
2022-10-22T03:10:51.570Z,65.22
2022-10-22T03:13:18.497Z,65.32
2022-10-22T03:15:45.521Z,65.49
2022-10-22T03:18:12.582Z,66.04
2022-10-22T03:20:39.665Z,66.16
2022-10-22T03:23:06.768Z,66.35
2022-10-22T03:25:34.834Z,64.80
2022-10-22T03:28:04.407Z,63.65
2022-10-22T03:30:31.552Z,63.60
2022-10-22T03:32:58.638Z,63.55
2022-10-22T03:35:25.627Z,64.10
2022-10-22T03:37:52.727Z,64.32
2022-10-22T03:40:20.014Z,64.99
2022-10-22T03:42:47.132Z,65.47
2022-10-22T03:45:14.058Z,65.75
2022-10-22T03:47:41.685Z,66.00
2022-10-22T03:50:09.817Z,66.40
2022-10-22T03:52:38.734Z,66.87
2022-10-22T03:55:06.597Z,67.33
2022-10-22T03:57:33.613Z,67.68
2022-10-22T04:00:00.604Z,68.13
2022-10-22T04:02:27.608Z,67.78
2022-10-22T04:04:54.577Z,65.83
2022-10-22T04:07:21.811Z,64.96
2022-10-22T04:09:48.754Z,64.59
2022-10-22T04:12:15.800Z,64.82
2022-10-22T04:14:42.842Z,65.08
2022-10-22T04:17:09.788Z,65.63
2022-10-22T04:19:37.040Z,66.25
2022-10-22T04:22:04.121Z,66.66
2022-10-22T04:24:32.162Z,67.11
2022-10-22T04:26:59.205Z,67.41
2022-10-22T04:29:26.190Z,67.83
2022-10-22T04:31:53.297Z,67.77
2022-10-22T04:34:20.383Z,68.34
2022-10-22T04:36:47.319Z,68.07
2022-10-22T04:39:14.752Z,66.07
2022-10-22T04:41:41.799Z,64.62
2022-10-22T04:44:12.268Z,64.64
2022-10-22T04:46:42.214Z,64.95
2022-10-22T04:49:09.188Z,65.50
2022-10-22T04:51:36.330Z,65.63
2022-10-22T04:54:03.480Z,66.09
2022-10-22T04:56:30.940Z,66.03
2022-10-22T04:59:02.497Z,66.58
2022-10-22T05:01:31.619Z,66.71
2022-10-22T05:04:00.996Z,66.97
2022-10-22T05:06:29.122Z,67.36
2022-10-22T05:08:58.229Z,67.54
2022-10-22T05:11:28.457Z,67.09
2022-10-22T05:13:57.126Z,65.05
2022-10-22T05:16:24.620Z,64.08
2022-10-22T05:18:51.666Z,63.78
2022-10-22T05:21:20.066Z,64.08
2022-10-22T05:23:48.500Z,64.52
2022-10-22T05:26:17.388Z,64.96
2022-10-22T05:28:44.289Z,65.50
2022-10-22T05:31:12.740Z,65.66
2022-10-22T05:33:39.788Z,65.78
2022-10-22T05:36:07.956Z,66.44
2022-10-22T05:38:35.286Z,66.74
2022-10-22T05:41:09.600Z,66.11
2022-10-22T05:43:37.396Z,66.56
2022-10-22T05:46:12.532Z,67.44
2022-10-22T05:48:39.719Z,67.44
2022-10-22T05:51:12.787Z,66.83
2022-10-22T05:53:41.284Z,64.86
2022-10-22T05:56:11.209Z,63.71
2022-10-22T05:58:38.319Z,63.98
2022-10-22T06:01:15.821Z,64.48
2022-10-22T06:03:43.265Z,64.30
2022-10-22T06:06:17.496Z,64.88
2022-10-22T06:08:46.145Z,64.46
2022-10-22T06:11:13.212Z,64.50
2022-10-22T06:13:40.257Z,65.19
2022-10-22T06:16:07.611Z,65.19
2022-10-22T06:18:34.816Z,65.48
2022-10-22T06:21:09.813Z,65.32
2022-10-22T10:24:38.080Z,53.03
2022-10-22T10:27:36.162Z,51.50
2022-10-22T10:30:09.680Z,51.70
2022-10-22T10:32:47.664Z,50.87
2022-10-22T10:35:23.456Z,49.38
2022-10-22T10:38:12.600Z,48.67
2022-10-22T10:40:49.104Z,47.59
2022-10-22T10:43:25.315Z,46.46
2022-10-22T10:46:08.892Z,44.96
2022-10-22T10:48:39.072Z,44.35
2022-10-22T10:51:08.270Z,44.19
2022-10-22T10:53:53.031Z,42.80
2022-10-22T10:56:43.527Z,43.34
2022-10-22T10:59:21.266Z,43.14
2022-10-22T11:02:13.464Z,42.95
2022-10-22T11:04:59.477Z,42.50
2022-10-22T11:07:34.629Z,42.01
2022-10-22T11:10:16.390Z,42.89
2022-10-22T11:12:45.394Z,42.67
2022-10-22T11:15:31.606Z,42.23
2022-10-22T11:18:24.232Z,42.37
2022-10-22T11:20:50.861Z,41.71
2022-10-22T11:23:27.697Z,42.19
2022-10-22T11:25:54.381Z,41.70
2022-10-22T11:28:24.314Z,41.95
2022-10-22T11:30:56.552Z,42.89
2022-10-22T11:33:25.099Z,42.83
2022-10-22T11:35:51.842Z,43.65
2022-10-22T11:38:22.019Z,43.92
2022-10-22T11:41:05.927Z,44.55
2022-10-22T11:43:52.965Z,43.37
2022-10-22T11:46:21.916Z,42.59
2022-10-22T11:49:13.188Z,43.96
2022-10-22T11:51:41.767Z,43.49
2022-10-22T11:54:33.740Z,42.61
2022-10-22T11:57:27.292Z,42.20
2022-10-22T11:59:58.779Z,42.40
2022-10-22T12:02:28.708Z,42.57
2022-10-22T12:05:15.893Z,43.88
2022-10-22T12:07:56.469Z,42.80
2022-10-22T12:10:29.034Z,43.19
2022-10-22T12:12:57.710Z,43.77
2022-10-22T12:15:27.842Z,43.23
2022-10-22T12:17:59.051Z,43.56
2022-10-22T12:20:26.922Z,44.23
2022-10-22T12:22:54.620Z,43.50
2022-10-22T12:25:22.529Z,43.63
2022-10-22T12:27:54.229Z,42.68
2022-10-22T12:30:23.441Z,43.24
2022-10-22T12:32:57.077Z,43.88
2022-10-22T12:35:25.174Z,42.97
2022-10-22T12:38:00.524Z,42.36
2022-10-22T12:40:28.784Z,42.03
2022-10-22T12:42:57.729Z,40.43
2022-10-22T12:45:30.306Z,41.52
2022-10-22T12:48:01.801Z,42.51
2022-10-22T12:50:42.300Z,42.74
2022-10-22T12:53:21.668Z,42.80
2022-10-22T12:55:50.266Z,42.83
2022-10-22T16:58:32.854Z,62.31
2022-10-22T17:01:00.737Z,62.62
2022-10-22T17:03:28.435Z,62.57
2022-10-22T17:05:58.102Z,62.68
2022-10-22T17:08:25.339Z,62.42
2022-10-22T17:10:53.706Z,62.05
2022-10-22T17:13:20.766Z,61.81
2022-10-22T17:15:48.221Z,61.33
2022-10-22T17:18:15.198Z,61.02
2022-10-22T17:20:45.601Z,60.58
2022-10-22T17:23:12.396Z,60.46
2022-10-22T17:25:43.174Z,60.34
2022-10-22T17:28:10.931Z,60.16
2022-10-22T17:30:40.081Z,59.81
2022-10-22T17:33:07.790Z,59.18
2022-10-22T17:52:49.334Z,58.61
2022-10-22T17:55:30.613Z,59.03
2022-10-22T17:57:57.681Z,59.13
2022-10-22T18:00:24.523Z,59.00
2022-10-22T18:02:51.788Z,59.17
2022-10-22T18:05:19.007Z,59.27
2022-10-22T18:07:46.520Z,59.15
2022-10-22T18:10:13.443Z,59.47
2022-10-22T18:12:41.578Z,59.59
2022-10-22T18:15:09.890Z,59.63
2022-10-22T18:17:39.779Z,60.09
2022-10-22T18:20:08.192Z,59.55
2022-10-22T18:22:35.227Z,59.36
2022-10-22T18:25:02.257Z,59.76
2022-10-22T18:27:29.542Z,59.45
2022-10-22T18:29:56.495Z,59.35
2022-10-22T18:32:25.742Z,59.58
2022-10-22T18:34:52.537Z,59.67
2022-10-22T18:37:19.838Z,59.96
2022-10-22T18:39:46.826Z,59.91
2022-10-22T18:44:45.693Z,60.94
2022-10-22T18:47:13.049Z,61.74
2022-10-22T18:49:40.396Z,61.86
2022-10-22T18:52:07.507Z,62.17
2022-10-22T18:54:35.325Z,62.74
2022-10-22T18:57:03.232Z,63.37
2022-10-22T18:59:30.391Z,62.93
2022-10-22T19:01:59.014Z,63.59
2022-10-22T19:04:36.014Z,63.65
2022-10-22T19:07:06.873Z,64.07
2022-10-22T19:09:34.903Z,64.42
2022-10-22T19:12:01.950Z,64.21
2022-10-22T19:14:29.034Z,63.84
2022-10-22T19:16:57.888Z,63.70
2022-10-22T19:19:24.931Z,63.68
2022-10-22T19:21:53.240Z,64.80
2022-10-22T19:24:21.383Z,65.65
2022-10-22T19:26:48.947Z,66.64
2022-10-22T19:29:18.175Z,66.77
2022-10-22T19:31:47.242Z,68.06
2022-10-22T19:34:19.097Z,69.01
2022-10-22T19:36:45.945Z,67.84
2022-10-22T19:39:16.167Z,66.28
2022-10-22T19:41:43.210Z,66.37
2022-10-22T19:44:11.993Z,66.67
2022-10-22T19:46:39.042Z,67.75
2022-10-22T19:49:06.028Z,68.78
2022-10-22T19:51:34.065Z,70.51
2022-10-22T19:54:03.976Z,71.45
2022-10-22T19:56:32.049Z,72.94
2022-10-22T19:58:59.376Z,72.56
2022-10-22T20:01:26.374Z,71.64
2022-10-22T20:03:53.821Z,72.07
2022-10-22T20:06:21.508Z,73.46
2022-10-22T20:08:53.739Z,74.49
2022-10-22T20:11:26.622Z,75.97
2022-10-22T20:13:54.179Z,74.98
2022-10-22T20:16:23.281Z,74.63
2022-10-22T20:18:51.347Z,75.12
2022-10-22T20:21:19.210Z,76.67
2022-10-22T20:23:51.586Z,77.95
2022-10-22T20:26:19.961Z,78.62
2022-10-22T20:28:47.006Z,77.51
2022-10-22T20:31:16.365Z,77.63
2022-10-22T20:33:43.770Z,77.38
2022-10-22T20:36:21.970Z,78.43
2022-10-22T20:38:49.397Z,78.81
2022-10-22T20:41:19.752Z,80.27
2022-10-22T20:43:47.214Z,80.12
2022-10-22T20:46:19.861Z,78.39
2022-10-22T20:48:46.561Z,78.12
2022-10-22T20:51:13.509Z,78.94
2022-10-22T20:53:41.341Z,79.70
2022-10-22T20:56:09.602Z,80.03
2022-10-22T20:58:37.094Z,78.94
2022-10-22T21:01:10.027Z,78.55
2022-10-22T21:03:38.320Z,77.85
2022-10-22T21:06:05.994Z,79.49
2022-10-22T21:08:32.986Z,79.95
2022-10-22T21:10:59.926Z,81.85
2022-10-22T21:13:31.346Z,81.55
2022-10-22T21:16:10.171Z,80.23
2022-10-22T21:18:38.227Z,80.89
2022-10-22T21:21:06.607Z,81.58
2022-10-22T21:23:34.580Z,82.05
2022-10-22T21:26:02.749Z,81.58
2022-10-22T21:28:32.279Z,80.75
2022-10-22T21:30:59.301Z,80.85
2022-10-22T21:33:26.252Z,81.53
2022-10-22T21:35:54.236Z,82.25
2022-10-22T21:38:21.461Z,82.77
2022-10-22T21:40:49.046Z,82.37
2022-10-22T21:43:16.619Z,81.30
2022-10-22T21:45:44.146Z,80.81
2022-10-22T21:48:12.588Z,81.20
2022-10-22T21:50:40.710Z,82.07
2022-10-22T21:53:08.670Z,82.99
2022-10-22T21:55:39.543Z,82.93
2022-10-22T21:58:07.269Z,81.62
2022-10-22T22:00:35.990Z,81.72
2022-10-22T22:03:05.288Z,82.15
2022-10-22T22:05:33.403Z,83.15
2022-10-22T22:08:00.582Z,83.98
2022-10-22T22:10:27.815Z,83.79
2022-10-22T22:12:56.235Z,82.21
2022-10-22T22:15:23.151Z,81.66
2022-10-22T22:17:50.141Z,82.30
2022-10-22T22:20:18.791Z,83.15
2022-10-22T22:22:46.642Z,83.88
2022-10-22T22:25:13.593Z,83.05
2022-10-22T22:27:42.687Z,82.01
2022-10-22T22:30:10.965Z,81.46
2022-10-22T22:32:37.920Z,81.90
2022-10-22T22:35:05.679Z,82.82
2022-10-22T22:37:33.783Z,83.29
2022-10-22T22:40:00.837Z,83.60
2022-10-22T22:42:29.174Z,82.65
2022-10-22T22:44:56.129Z,82.73
2022-10-22T22:47:23.163Z,83.71
2022-10-22T22:49:49.967Z,84.63
2022-10-22T22:52:16.999Z,84.26
2022-10-22T22:54:47.589Z,83.11
2022-10-22T22:57:14.692Z,82.96
2022-10-22T23:24:03.562Z,83.47
2022-10-22T23:26:32.861Z,83.61
2022-10-22T23:29:23.931Z,84.71
2022-10-22T23:31:51.328Z,85.36
2022-10-22T23:34:21.963Z,83.93
2022-10-22T23:36:49.620Z,82.86
2022-10-22T23:39:19.022Z,83.23
2022-10-22T23:41:46.608Z,83.70
2022-10-22T23:44:15.986Z,84.98
2022-10-22T23:46:43.545Z,84.49
2022-10-22T23:49:11.928Z,83.86
2022-10-22T23:51:40.505Z,83.41
2022-10-22T23:54:11.348Z,83.49
2022-10-22T23:56:40.538Z,84.67
2022-10-22T23:59:09.111Z,83.58
